Aviation Digital Data Service (ADDS)

Output produced by METARs form (1308 UTC 25 August 2016)
found at http://aviationweather.gov/adds/metars/
 
KVQQ 251120Z 2512/2612 04005KT P6SM FEW020 BKN250 
     FM251500 05010KT P6SM VCSH SCT025 BKN035 
     FM252100 06012G18KT P6SM SCT035 BKN080 
     FM260000 07006KT P6SM FEW025 SCT250